Time;durP1;ratioP1;P1;durP2;ratioP2;P2;SDS_P1;SDS_P2;PMS_P1;PMS_P2;Temp;Humidity;BMP_temperature;BMP_pressure;BME280_temperature;BME280_humidity;BME280_pressure;Samples;Min_cycle;Max_cycle;Signal;HPM_P1;HPM_P2
2022/07/06 00:01:21;;;;;;;5.50;3.50;;;;;;;18.17;nan;101795.25;5059027;28;20165;-71
2022/07/06 00:03:46;;;;;;;5.73;3.33;;;;;;;17.72;nan;101802.44;5059347;28;20409;-69
2022/07/06 00:06:12;;;;;;;4.93;3.10;;;;;;;17.60;nan;101805.97;5058835;28;20166;-69
2022/07/06 00:08:37;;;;;;;6.77;3.57;;;;;;;17.58;nan;101808.63;5058757;28;20169;-69
2022/07/06 00:11:03;;;;;;;4.80;3.00;;;;;;;17.66;nan;101805.97;5059126;28;20206;-69
2022/07/06 00:13:29;;;;;;;3.47;2.80;;;;;;;17.37;nan;101809.53;5057765;28;20525;-69
2022/07/06 00:15:54;;;;;;;5.63;3.43;;;;;;;17.43;nan;101814.81;5058772;28;20181;-69
2022/07/06 00:18:20;;;;;;;4.37;3.40;;;;;;;17.63;nan;101811.25;5058731;28;20614;-69
2022/07/06 00:20:45;;;;;;;3.80;3.40;;;;;;;17.44;nan;101813.03;5058222;28;20197;-70
2022/07/06 00:23:11;;;;;;;5.27;3.20;;;;;;;17.38;nan;101806.03;5058806;28;20227;-69
2022/07/06 00:25:36;;;;;;;5.20;3.40;;;;;;;17.13;nan;101808.69;5058494;28;20178;-69
2022/07/06 00:28:02;;;;;;;4.10;3.70;;;;;;;17.14;nan;101810.47;5058419;28;20165;-70
2022/07/06 00:30:27;;;;;;;4.03;3.47;;;;;;;17.51;nan;101807.75;5058886;28;20169;-69
2022/07/06 00:32:53;;;;;;;3.90;3.50;;;;;;;17.59;nan;101817.41;5058458;28;20189;-70
2022/07/06 00:35:18;;;;;;;4.50;3.30;;;;;;;17.39;nan;101810.44;5058490;28;20532;-69
2022/07/06 00:37:43;;;;;;;4.57;3.47;;;;;;;17.24;nan;101803.41;5058818;28;20252;-70
2022/07/06 00:40:09;;;;;;;4.37;3.47;;;;;;;16.98;nan;101813.94;5058375;28;20201;-70
2022/07/06 00:42:46;;;;;;;6.70;4.07;;;;;;;17.61;nan;101805.97;5058190;28;20170;-68
2022/07/06 00:45:12;;;;;;;5.83;3.20;;;;;;;17.43;nan;101801.63;5057241;28;20476;-70
2022/07/06 00:47:39;;;;;;;5.33;3.90;;;;;;;17.31;nan;101806.94;5046840;28;20698;-70
2022/07/06 00:50:14;;;;;;;4.40;3.53;;;;;;;17.09;nan;101804.31;5047631;28;20406;-68
2022/07/06 00:52:53;;;;;;;3.67;3.27;;;;;;;17.17;nan;101806.94;5057481;28;20401;-68
2022/07/06 00:55:21;;;;;;;3.57;3.23;;;;;;;17.24;nan;101806.06;5057964;28;20419;-69
2022/07/06 00:57:47;;;;;;;5.53;3.73;;;;;;;17.48;nan;101813.06;5058001;28;20415;-70
2022/07/06 01:00:14;;;;;;;5.53;3.57;;;;;;;16.96;nan;101813.09;5057191;28;20442;-68
2022/07/06 01:02:40;;;;;;;8.97;3.80;;;;;;;17.22;nan;101810.44;5058144;28;20547;-68
2022/07/06 01:05:08;;;;;;;6.07;3.63;;;;;;;17.32;nan;101813.97;5057774;28;20460;-68
2022/07/06 01:07:34;;;;;;;3.30;3.00;;;;;;;17.39;nan;101813.06;5057855;28;20158;-68
2022/07/06 01:10:00;;;;;;;11.50;3.40;;;;;;;17.47;nan;101807.78;5058310;28;20440;-69
2022/07/06 01:12:25;;;;;;;4.03;3.30;;;;;;;17.30;nan;101811.28;5057894;28;20394;-70
2022/07/06 01:14:51;;;;;;;8.73;3.90;;;;;;;17.06;nan;101804.31;5057655;28;20820;-72
2022/07/06 01:17:19;;;;;;;5.50;3.57;;;;;;;17.33;nan;101810.41;5057928;28;20225;-71
2022/07/06 01:19:44;;;;;;;7.73;3.83;;;;;;;17.23;nan;101811.34;5057123;28;20205;-71
2022/07/06 01:22:10;;;;;;;6.53;3.20;;;;;;;17.26;nan;101808.69;5057212;28;20387;-72
2022/07/06 01:24:36;;;;;;;8.13;3.60;;;;;;;17.34;nan;101804.28;5044298;28;20181;-69
2022/07/06 01:27:02;;;;;;;6.03;3.57;;;;;;;17.21;nan;101807.81;5054580;28;20551;-67
2022/07/06 01:29:28;;;;;;;4.97;3.57;;;;;;;17.13;nan;101805.16;5047787;28;20174;-69
2022/07/06 01:31:53;;;;;;;4.23;3.63;;;;;;;17.51;nan;101802.50;5037623;28;20721;-68
2022/07/06 01:34:19;;;;;;;4.87;3.83;;;;;;;17.21;nan;101799.91;5052174;28;20205;-68
2022/07/06 01:36:44;;;;;;;6.03;3.57;;;;;;;17.50;nan;101802.50;5046397;28;20173;-67
2022/07/06 01:39:10;;;;;;;5.50;3.43;;;;;;;17.21;nan;101803.44;5061500;28;20272;-67
2022/07/06 01:41:36;;;;;;;5.07;3.63;;;;;;;17.17;nan;101802.53;5052525;28;20440;-70
2022/07/06 01:44:02;;;;;;;5.73;3.50;;;;;;;17.41;nan;101795.47;5041009;28;20167;-70
2022/07/06 01:46:28;;;;;;;3.47;3.17;;;;;;;17.31;nan;101804.28;5041445;28;20216;-70
2022/07/06 01:48:53;;;;;;;6.23;3.60;;;;;;;17.20;nan;101790.22;5041394;28;20384;-69
2022/07/06 01:51:19;;;;;;;4.00;3.60;;;;;;;17.45;nan;101786.66;5041606;28;20167;-69
2022/07/06 01:53:45;;;;;;;9.10;3.53;;;;;;;17.32;nan;101787.59;5041264;28;20178;-69
2022/07/06 01:56:11;;;;;;;7.73;3.90;;;;;;;17.24;nan;101784.97;5041422;28;20258;-69
2022/07/06 01:58:37;;;;;;;8.07;3.60;;;;;;;17.13;nan;101790.25;5041668;28;20237;-69
2022/07/06 02:01:09;;;;;;;3.97;3.20;;;;;;;17.42;nan;101791.09;5041066;28;20824;-69
2022/07/06 02:03:35;;;;;;;5.23;3.43;;;;;;;17.36;nan;101797.25;5041006;28;20387;-69
2022/07/06 02:06:01;;;;;;;9.33;3.80;;;;;;;17.68;nan;101785.75;5041565;28;20652;-69
2022/07/06 02:08:26;;;;;;;7.83;4.10;;;;;;;17.50;nan;101795.44;5041268;28;20466;-69
2022/07/06 02:10:52;;;;;;;7.13;3.63;;;;;;;17.64;nan;101790.16;5041198;28;20174;-70
2022/07/06 02:13:17;;;;;;;5.63;3.80;;;;;;;17.47;nan;101795.47;5041400;28;20178;-70
2022/07/06 02:15:42;;;;;;;5.40;3.60;;;;;;;17.30;nan;101791.97;5040885;28;20174;-68
2022/07/06 02:18:08;;;;;;;5.43;3.50;;;;;;;17.42;nan;101796.38;5040890;28;20231;-69
2022/07/06 02:20:33;;;;;;;5.30;3.70;;;;;;;17.01;nan;101795.53;5041214;28;20228;-69
2022/07/06 02:22:59;;;;;;;4.87;3.97;;;;;;;16.96;nan;101799.91;5023666;28;20198;-68
2022/07/06 02:25:24;;;;;;;5.30;3.63;;;;;;;17.49;nan;101800.72;5040873;28;20220;-69
2022/07/06 02:27:50;;;;;;;6.27;3.47;;;;;;;17.08;nan;101796.41;5041074;28;20524;-69
2022/07/06 02:30:15;;;;;;;6.37;3.40;;;;;;;17.39;nan;101810.44;5040744;28;20205;-69
2022/07/06 02:32:40;;;;;;;4.50;3.30;;;;;;;17.42;nan;101799.88;5040572;28;20171;-70
2022/07/06 02:35:06;;;;;;;4.70;3.60;;;;;;;17.65;nan;101801.59;5040935;28;20228;-69
2022/07/06 02:37:32;;;;;;;4.57;3.23;;;;;;;17.29;nan;101806.94;5040503;28;20205;-69
2022/07/06 02:39:57;;;;;;;4.90;3.20;;;;;;;17.55;nan;101805.09;5040510;28;20218;-69
2022/07/06 02:42:22;;;;;;;4.77;3.57;;;;;;;17.24;nan;101798.16;5040926;28;20194;-69
2022/07/06 02:44:48;;;;;;;4.00;3.37;;;;;;;17.09;nan;101799.03;5039873;28;20178;-68
2022/07/06 02:47:13;;;;;;;4.23;3.20;;;;;;;17.01;nan;101798.16;5040363;28;20201;-70
2022/07/06 02:49:38;;;;;;;7.40;3.50;;;;;;;17.15;nan;101799.03;5040727;28;20163;-69
2022/07/06 02:52:04;;;;;;;5.03;3.20;;;;;;;17.47;nan;101791.97;5040376;28;20198;-69
2022/07/06 02:54:29;;;;;;;5.47;3.80;;;;;;;17.70;nan;101789.25;5023097;28;20590;-70
2022/07/06 02:56:55;;;;;;;7.03;3.43;;;;;;;17.64;nan;101781.34;5040651;28;20202;-68
2022/07/06 02:59:20;;;;;;;5.93;3.33;;;;;;;17.51;nan;101783.16;5040156;28;20206;-70
2022/07/06 03:01:46;;;;;;;5.00;3.50;;;;;;;17.53;nan;101793.72;5040313;28;20205;-70
2022/07/06 03:04:11;;;;;;;4.20;3.40;;;;;;;17.20;nan;101788.50;5023091;28;20265;-69
2022/07/06 03:06:36;;;;;;;3.77;3.40;;;;;;;17.40;nan;101793.75;5040112;28;20254;-70
2022/07/06 03:09:02;;;;;;;4.03;3.30;;;;;;;17.15;nan;101788.47;5040141;28;20182;-69
2022/07/06 03:11:28;;;;;;;4.83;3.30;;;;;;;17.25;nan;101791.09;5023382;28;20225;-69
2022/07/06 03:13:53;;;;;;;7.23;3.60;;;;;;;17.30;nan;101794.63;5040695;28;20387;-71
2022/07/06 03:16:18;;;;;;;6.30;3.50;;;;;;;16.96;nan;101797.28;5040186;28;20170;-70
2022/07/06 03:18:44;;;;;;;6.97;3.90;;;;;;;17.05;nan;101801.66;5039666;28;20222;-70
2022/07/06 03:21:09;;;;;;;3.80;3.40;;;;;;;17.04;nan;101803.44;5039941;28;20179;-70
2022/07/06 03:23:35;;;;;;;6.03;3.87;;;;;;;17.27;nan;101798.13;5039929;28;20450;-70
2022/07/06 03:26:01;;;;;;;4.77;3.50;;;;;;;17.06;nan;101806.06;5039613;28;20182;-69
2022/07/06 03:28:26;;;;;;;6.60;4.40;;;;;;;17.27;nan;101802.53;5039808;28;20175;-70
2022/07/06 03:30:52;;;;;;;6.60;5.07;;;;;;;17.54;nan;101806.88;5040483;28;20479;-70
2022/07/06 03:33:17;;;;;;;9.73;6.10;;;;;;;17.39;nan;101809.56;5039471;28;20208;-69
2022/07/06 03:35:42;;;;;;;11.10;7.67;;;;;;;17.16;nan;101799.91;5039578;28;20170;-70
2022/07/06 03:38:08;;;;;;;8.93;5.47;;;;;;;17.29;nan;101800.75;5039948;28;20198;-71
2022/07/06 03:40:33;;;;;;;11.20;6.23;;;;;;;17.21;nan;101802.53;5039391;28;20572;-69
2022/07/06 03:42:59;;;;;;;9.83;5.10;;;;;;;17.24;nan;101798.16;5039351;28;20208;-71
2022/07/06 03:45:24;;;;;;;7.70;4.70;;;;;;;17.38;nan;101806.03;5039843;28;20178;-69
2022/07/06 03:47:50;;;;;;;5.87;4.13;;;;;;;16.83;nan;101810.41;5039262;28;20174;-69
2022/07/06 03:50:15;;;;;;;4.73;3.70;;;;;;;17.10;nan;101803.44;5039303;28;20273;-70
2022/07/06 03:52:40;;;;;;;7.00;3.80;;;;;;;17.29;nan;101806.03;5039639;28;20166;-70
2022/07/06 03:55:11;;;;;;;6.90;4.17;;;;;;;17.14;nan;101807.81;5021696;28;20185;-70
2022/07/06 03:57:37;;;;;;;6.60;3.90;;;;;;;16.84;nan;101812.19;5038680;28;20171;-70
2022/07/06 04:00:04;;;;;;;4.10;3.70;;;;;;;16.80;nan;101817.44;5039450;28;20520;-70
2022/07/06 04:02:30;;;;;;;7.03;3.83;;;;;;;16.91;nan;101814.84;5039037;28;20392;-70
2022/07/06 04:04:55;;;;;;;5.60;3.90;;;;;;;16.33;nan;101817.34;5038854;28;20475;-69
2022/07/06 04:07:20;;;;;;;5.47;3.60;;;;;;;16.67;nan;101817.41;5039383;28;20228;-69
2022/07/06 04:09:46;;;;;;;4.83;3.30;;;;;;;16.41;nan;101820.00;5039097;28;20229;-70
2022/07/06 04:12:11;;;;;;;4.73;3.50;;;;;;;16.70;nan;101821.81;5038999;28;20200;-70
2022/07/06 04:14:37;;;;;;;8.23;3.43;;;;;;;16.62;nan;101815.66;5039103;28;20202;-69
2022/07/06 04:17:51;;;;;;;5.77;3.23;;;;;;;16.55;nan;101811.22;5038504;28;20537;-70
2022/07/06 04:19:47;;;;;;;3.53;2.80;;;;;;;16.68;nan;101810.38;5038554;28;20263;-69
2022/07/06 04:22:13;;;;;;;5.10;4.00;;;;;;;17.11;nan;101806.94;5038631;28;20380;-70
2022/07/06 04:24:38;;;;;;;4.60;3.53;;;;;;;17.39;nan;101810.44;5038560;28;20565;-70
2022/07/06 04:27:04;;;;;;;4.73;3.30;;;;;;;17.04;nan;101807.84;5039287;28;20180;-70
2022/07/06 04:29:29;;;;;;;6.17;3.47;;;;;;;17.20;nan;101811.31;5038667;28;20194;-69
2022/07/06 04:31:54;;;;;;;5.50;3.80;;;;;;;16.94;nan;101804.28;5038494;28;20189;-69
2022/07/06 04:34:20;;;;;;;4.73;3.33;;;;;;;17.26;nan;101801.66;5038912;28;20270;-70
2022/07/06 04:36:45;;;;;;;6.70;3.70;;;;;;;17.35;nan;101795.50;5038541;28;20166;-70
2022/07/06 04:39:11;;;;;;;8.60;4.47;;;;;;;17.24;nan;101794.63;5038447;28;20563;-70
2022/07/06 04:41:37;;;;;;;6.67;3.80;;;;;;;17.34;nan;101793.72;5039013;28;20213;-69
2022/07/06 04:44:02;;;;;;;5.57;3.40;;;;;;;17.36;nan;101796.38;5038075;28;20395;-70
2022/07/06 04:46:28;;;;;;;9.13;3.70;;;;;;;17.68;nan;101799.81;5038419;28;20249;-69
2022/07/06 04:48:53;;;;;;;5.30;3.57;;;;;;;18.32;nan;101794.28;5038583;28;20463;-70
2022/07/06 04:51:19;;;;;;;6.70;2.90;;;;;;;18.14;nan;101801.44;5038229;28;20202;-69
2022/07/06 04:53:45;;;;;;;4.43;3.20;;;;;;;17.28;nan;101799.91;5038223;28;20220;-70
2022/07/06 04:56:10;;;;;;;4.03;3.00;;;;;;;17.22;nan;101797.25;5038672;28;20504;-69
2022/07/06 04:58:36;;;;;;;7.17;4.40;;;;;;;17.47;nan;101811.28;5037960;28;20503;-69
2022/07/06 05:01:01;;;;;;;7.10;3.40;;;;;;;17.37;nan;101795.50;5037884;28;20196;-70
2022/07/06 05:03:27;;;;;;;3.57;3.03;;;;;;;17.73;nan;101801.56;5038190;28;20249;-69
2022/07/06 05:05:52;;;;;;;4.97;3.27;;;;;;;17.61;nan;101807.75;5037885;28;20543;-69
2022/07/06 05:08:18;;;;;;;7.23;4.93;;;;;;;17.75;nan;101805.97;5037714;28;20189;-70
2022/07/06 05:10:43;;;;;;;5.13;3.10;;;;;;;17.62;nan;101809.50;5038284;28;20170;-69
2022/07/06 05:13:08;;;;;;;4.07;2.90;;;;;;;17.20;nan;101814.84;5038178;28;20249;-70
2022/07/06 05:15:34;;;;;;;7.43;4.20;;;;;;;17.49;nan;101812.19;5037279;28;20606;-69
2022/07/06 05:17:59;;;;;;;4.27;3.23;;;;;;;17.81;nan;101811.19;5042321;28;20222;-70
2022/07/06 05:20:24;;;;;;;3.60;3.00;;;;;;;17.42;nan;101810.41;5037538;28;20651;-69
2022/07/06 05:22:50;;;;;;;8.00;3.30;;;;;;;17.22;nan;101814.84;5038032;28;20184;-69
2022/07/06 05:25:15;;;;;;;7.07;3.57;;;;;;;17.63;nan;101805.97;5037729;28;20452;-71
2022/07/06 05:27:40;;;;;;;5.53;3.80;;;;;;;17.55;nan;101810.38;5037674;28;20190;-69
2022/07/06 05:30:06;;;;;;;8.23;3.50;;;;;;;17.79;nan;101815.63;5038038;28;20158;-70
2022/07/06 05:32:35;;;;;;;7.27;3.40;;;;;;;17.40;nan;101811.28;5037750;28;20174;-70
2022/07/06 05:35:00;;;;;;;3.87;3.47;;;;;;;17.39;nan;101812.19;5038242;28;20166;-70
2022/07/06 05:37:25;;;;;;;6.27;3.87;;;;;;;17.68;nan;101807.72;5038575;28;20416;-69
2022/07/06 05:39:51;;;;;;;5.63;3.43;;;;;;;17.78;nan;101807.69;5037789;28;20210;-70
2022/07/06 05:42:16;;;;;;;4.77;3.40;;;;;;;17.71;nan;101811.22;5037381;28;20198;-70
2022/07/06 05:44:42;;;;;;;7.37;3.70;;;;;;;17.85;nan;101810.31;5037638;28;20171;-70
2022/07/06 05:52:35;;;;;;;5.03;3.40;;;;;;;18.13;nan;101825.16;5047567;28;20461;-70
2022/07/06 05:55:00;;;;;;;8.30;3.53;;;;;;;18.03;nan;101819.06;5057357;28;20832;-70
2022/07/06 05:57:26;;;;;;;6.53;3.30;;;;;;;17.89;nan;101823.47;5057460;28;20439;-68
2022/07/06 05:59:51;;;;;;;5.20;3.30;;;;;;;18.20;nan;101821.66;5057474;28;20201;-67
2022/07/06 06:02:16;;;;;;;5.43;3.00;;;;;;;18.37;nan;101820.66;5057675;28;20169;-68
2022/07/06 06:04:42;;;;;;;7.87;3.00;;;;;;;18.56;nan;101814.38;5057218;28;20185;-70
2022/07/06 06:07:07;;;;;;;6.10;3.40;;;;;;;17.63;nan;101827.06;5057173;28;20185;-71
2022/07/06 06:09:32;;;;;;;5.17;3.30;;;;;;;17.67;nan;101831.44;5057773;28;20207;-68
2022/07/06 06:11:58;;;;;;;4.93;3.33;;;;;;;18.10;nan;101828.69;5057201;28;20174;-67
2022/07/06 06:14:23;;;;;;;7.10;3.83;;;;;;;17.84;nan;101832.28;5057101;28;20178;-68
2022/07/06 06:16:49;;;;;;;6.63;3.37;;;;;;;17.60;nan;101835.88;5057117;28;20169;-67
2022/07/06 06:19:14;;;;;;;4.77;3.50;;;;;;;17.83;nan;101838.47;5058047;28;20614;-69
2022/07/06 06:21:40;;;;;;;6.30;2.90;;;;;;;17.64;nan;101847.28;5060599;28;20436;-68
2022/07/06 06:24:06;;;;;;;5.47;3.00;;;;;;;17.37;nan;101840.31;5061017;28;20667;-67
2022/07/06 06:26:31;;;;;;;8.00;4.10;;;;;;;17.80;nan;101837.59;5062715;28;20207;-67
2022/07/06 06:28:56;;;;;;;5.20;3.07;;;;;;;18.16;nan;101833.09;5061157;28;20184;-68
2022/07/06 06:31:22;;;;;;;4.43;2.40;;;;;;;17.56;nan;101831.47;5060626;28;20174;-67
2022/07/06 06:33:47;;;;;;;4.10;3.10;;;;;;;17.99;nan;101834.03;5060335;28;20227;-68
2022/07/06 06:36:12;;;;;;;5.53;2.80;;;;;;;17.78;nan;101832.31;5060905;28;20482;-69
2022/07/06 06:38:38;;;;;;;2.93;2.63;;;;;;;18.38;nan;101828.59;5059608;28;20177;-66
2022/07/06 06:41:03;;;;;;;6.53;2.90;;;;;;;18.57;nan;101833.75;5060444;28;20211;-68
2022/07/06 06:43:28;;;;;;;4.67;3.00;;;;;;;18.43;nan;101842.63;5060771;28;20174;-67
2022/07/06 06:45:54;;;;;;;3.60;2.53;;;;;;;18.18;nan;101839.22;5060512;28;20212;-66
2022/07/06 06:48:19;;;;;;;5.27;2.80;;;;;;;18.85;nan;101837.97;5060197;28;20188;-66
2022/07/06 06:50:45;;;;;;;4.23;3.07;;;;;;;18.52;nan;101841.69;5060678;28;20173;-67
2022/07/06 06:53:11;;;;;;;4.43;2.80;;;;;;;18.85;nan;101837.97;5044869;28;20185;-68
2022/07/06 06:55:36;;;;;;;4.43;3.20;;;;;;;18.37;nan;101839.16;5047809;28;20207;-67
2022/07/06 06:58:02;;;;;;;4.90;3.10;;;;;;;19.30;nan;101840.28;5060283;28;20252;-66
2022/07/06 07:00:27;;;;;;;4.00;2.70;;;;;;;19.15;nan;101833.34;5054925;28;20202;-67
2022/07/06 07:02:52;;;;;;;6.00;2.90;;;;;;;19.07;nan;101839.59;5059613;28;20302;-67
2022/07/06 07:05:18;;;;;;;5.23;3.13;;;;;;;19.07;nan;101842.25;5060360;28;20295;-67
2022/07/06 07:07:43;;;;;;;8.30;4.23;;;;;;;18.74;nan;101846.84;5059836;28;20204;-66
2022/07/06 07:10:09;;;;;;;9.70;3.50;;;;;;;18.90;nan;101845.88;5059455;28;20177;-72
2022/07/06 07:12:34;;;;;;;6.30;3.77;;;;;;;19.40;nan;101850.75;5060037;28;20196;-71
2022/07/06 07:15:01;;;;;;;4.70;3.27;;;;;;;20.39;nan;101841.72;5059624;28;20634;-69
2022/07/06 07:17:27;;;;;;;6.27;2.60;;;;;;;19.77;nan;101845.09;5057417;28;20310;-68
2022/07/06 07:19:52;;;;;;;3.37;2.60;;;;;;;19.28;nan;101852.66;5045262;28;20449;-68
2022/07/06 07:22:18;;;;;;;9.40;2.73;;;;;;;19.88;nan;101845.00;5039843;28;20181;-68
2022/07/06 07:24:43;;;;;;;4.73;3.00;;;;;;;19.91;nan;101852.94;5039708;28;20458;-68
2022/07/06 07:27:09;;;;;;;6.40;2.70;;;;;;;19.86;nan;101852.97;5050874;28;20536;-68
2022/07/06 07:29:34;;;;;;;5.60;2.83;;;;;;;18.90;nan;101858.22;5059530;28;20220;-70
2022/07/06 07:32:00;;;;;;;4.97;2.50;;;;;;;18.77;nan;101871.50;5058417;28;20169;-69
2022/07/06 07:34:25;;;;;;;4.97;2.73;;;;;;;18.64;nan;101873.31;5059699;28;20197;-70
2022/07/06 07:36:50;;;;;;;6.90;4.40;;;;;;;18.95;nan;101877.56;5055544;28;20482;-70
2022/07/06 07:39:16;;;;;;;6.73;3.07;;;;;;;18.85;nan;101874.94;5045122;28;20256;-69
2022/07/06 07:41:42;;;;;;;5.17;3.30;;;;;;;18.76;nan;101876.78;5056060;28;20193;-69
2022/07/06 07:44:07;;;;;;;7.23;3.00;;;;;;;18.37;nan;101876.97;5059128;28;20185;-70
2022/07/06 07:46:33;;;;;;;6.20;3.30;;;;;;;18.74;nan;101873.25;5046603;28;20419;-69
2022/07/06 07:48:58;;;;;;;5.57;3.30;;;;;;;18.67;nan;101885.63;5039164;28;20448;-69
2022/07/06 07:51:24;;;;;;;4.90;3.30;;;;;;;18.54;nan;101870.72;5045066;28;20450;-71
2022/07/06 07:53:49;;;;;;;4.47;2.97;;;;;;;18.31;nan;101888.44;5058254;28;20558;-69
2022/07/06 07:56:14;;;;;;;5.10;3.10;;;;;;;18.29;nan;101886.69;5057427;28;20264;-70
2022/07/06 07:58:40;;;;;;;4.23;3.00;;;;;;;18.36;nan;101880.53;5058611;28;20591;-70
2022/07/06 08:01:05;;;;;;;4.77;2.70;;;;;;;18.02;nan;101883.28;5058397;28;20539;-71
2022/07/06 08:03:31;;;;;;;14.47;13.00;;;;;;;18.56;nan;101876.91;5050646;28;20181;-68
2022/07/06 08:05:56;;;;;;;2.77;2.47;;;;;;;18.98;nan;101872.25;5057424;28;20265;-68
2022/07/06 08:08:22;;;;;;;3.27;2.97;;;;;;;18.79;nan;101882.03;5058585;28;20382;-68
2022/07/06 08:10:47;;;;;;;6.37;2.53;;;;;;;18.91;nan;101881.13;5059208;28;20200;-68
2022/07/06 08:13:14;;;;;;;3.30;2.00;;;;;;;18.77;nan;101889.13;5058643;28;20191;-68
2022/07/06 08:15:40;;;;;;;3.90;2.50;;;;;;;18.61;nan;101885.69;5058565;28;20586;-67
2022/07/06 08:18:05;;;;;;;4.63;3.40;;;;;;;18.89;nan;101890.81;5057691;28;20434;-67
2022/07/06 08:20:31;;;;;;;4.40;2.80;;;;;;;18.35;nan;101895.47;5058386;28;20209;-67
2022/07/06 08:22:56;;;;;;;4.13;2.70;;;;;;;17.67;nan;101895.63;5058598;28;20181;-67
2022/07/06 08:25:22;;;;;;;5.63;2.73;;;;;;;18.01;nan;101905.28;5058238;28;20463;-67
2022/07/06 08:27:48;;;;;;;3.33;2.67;;;;;;;18.29;nan;101913.09;5058484;28;20173;-67
2022/07/06 08:30:13;;;;;;;3.53;2.60;;;;;;;17.78;nan;101906.16;5058735;28;20241;-69
2022/07/06 08:32:42;;;;;;;6.37;3.33;;;;;;;17.55;nan;101907.94;5058460;28;20507;-68
2022/07/06 08:35:08;;;;;;;3.20;2.80;;;;;;;17.12;nan;101907.06;5058074;28;20472;-68
2022/07/06 08:37:34;;;;;;;2.57;2.37;;;;;;;17.60;nan;101895.63;5058702;28;20389;-68
2022/07/06 08:39:59;;;;;;;2.90;2.53;;;;;;;17.93;nan;101896.50;5058224;28;20442;-69
2022/07/06 08:42:31;;;;;;;4.80;2.63;;;;;;;18.08;nan;101883.25;5057549;28;20205;-68
2022/07/06 08:45:00;;;;;;;2.60;2.30;;;;;;;18.40;nan;101884.91;5057517;28;20211;-70
2022/07/06 08:47:26;;;;;;;3.37;2.37;;;;;;;18.83;nan;101882.03;5057940;28;20429;-69
2022/07/06 08:49:53;;;;;;;5.43;2.60;;;;;;;18.90;nan;101877.59;5058047;28;20386;-70
2022/07/06 08:52:18;;;;;;;3.63;2.40;;;;;;;18.67;nan;101889.16;5058264;28;20655;-68
2022/07/06 08:54:44;;;;;;;3.43;2.63;;;;;;;19.34;nan;101888.72;5057857;28;20412;-69
2022/07/06 08:57:09;;;;;;;3.53;2.77;;;;;;;19.50;nan;101887.69;5058114;28;20211;-68
2022/07/06 08:59:34;;;;;;;4.27;2.50;;;;;;;19.46;nan;101896.53;5057066;28;20189;-68
2022/07/06 09:02:00;;;;;;;5.10;2.90;;;;;;;19.47;nan;101887.72;5057759;28;20524;-69
2022/07/06 09:04:26;;;;;;;3.40;2.87;;;;;;;19.16;nan;101900.34;5057798;28;20177;-69
2022/07/06 09:06:53;;;;;;;5.80;3.00;;;;;;;19.64;nan;101903.41;5058142;28;20208;-69
2022/07/06 09:09:23;;;;;;;4.50;2.60;;;;;;;20.24;nan;101901.06;5057738;28;20161;-68
2022/07/06 09:11:49;;;;;;;3.10;2.50;;;;;;;20.13;nan;101893.25;5058016;28;20423;-70
2022/07/06 09:14:14;;;;;;;3.30;2.50;;;;;;;20.16;nan;101899.38;5057838;28;20692;-72
2022/07/06 09:16:40;;;;;;;6.30;3.33;;;;;;;20.32;nan;101902.75;5057197;28;20188;-71
2022/07/06 09:19:11;;;;;;;3.50;3.20;;;;;;;20.75;nan;101897.78;5057723;28;20208;-70
2022/07/06 09:21:36;;;;;;;3.43;2.73;;;;;;;21.35;nan;101891.53;5058012;28;20252;-71
2022/07/06 09:24:06;;;;;;;3.50;2.70;;;;;;;21.02;nan;101894.69;5057591;28;20412;-71
2022/07/06 09:26:31;;;;;;;3.30;2.73;;;;;;;21.69;nan;101889.19;5056925;28;20184;-68
2022/07/06 09:28:57;;;;;;;3.53;2.50;;;;;;;22.72;nan;101893.31;5057754;28;20408;-67
2022/07/06 09:31:23;;;;;;;3.80;2.80;;;;;;;23.23;nan;101885.94;5057436;28;20467;-70
2022/07/06 09:33:56;;;;;;;2.63;2.43;;;;;;;23.38;nan;101888.19;5058033;28;20418;-71
2022/07/06 09:36:40;;;;;;;2.53;2.20;;;;;;;22.69;nan;101893.38;5058095;28;20224;-69
2022/07/06 09:39:28;;;;;;;2.63;2.03;;;;;;;21.76;nan;101900.56;5057469;28;20509;-70
2022/07/06 09:41:55;;;;;;;4.17;2.70;;;;;;;21.13;nan;101899.84;5057694;28;20818;-66
2022/07/06 09:44:29;;;;;;;3.97;2.50;;;;;;;20.79;nan;101902.13;5057313;28;20416;-67
2022/07/06 09:47:02;;;;;;;4.47;2.40;;;;;;;20.77;nan;101899.50;5057540;28;20903;-67
2022/07/06 09:49:28;;;;;;;4.63;3.43;;;;;;;20.28;nan;101894.84;5057177;28;20849;-67
2022/07/06 09:51:59;;;;;;;3.27;2.43;;;;;;;20.85;nan;101892.31;5057413;28;20436;-72
2022/07/06 09:54:25;;;;;;;3.20;2.20;;;;;;;20.69;nan;101890.81;5058669;28;20257;-71
2022/07/06 09:56:51;;;;;;;5.53;2.27;;;;;;;21.70;nan;101888.31;5061126;28;20885;-69
2022/07/06 09:59:27;;;;;;;4.20;2.30;;;;;;;22.13;nan;101883.03;5061306;28;20282;-70
2022/07/06 10:01:57;;;;;;;3.13;2.30;;;;;;;21.74;nan;101889.09;5061275;28;20427;-70
2022/07/06 10:04:23;;;;;;;3.40;2.57;;;;;;;21.84;nan;101888.03;5061104;28;20685;-70
2022/07/06 10:06:49;;;;;;;2.90;2.57;;;;;;;22.09;nan;101882.22;5060440;28;20761;-70
2022/07/06 10:09:15;;;;;;;4.03;2.67;;;;;;;22.79;nan;101889.59;5061073;28;20416;-70
2022/07/06 10:11:44;;;;;;;3.47;2.57;;;;;;;21.93;nan;101884.31;5060319;28;20551;-70
2022/07/06 10:14:10;;;;;;;3.10;2.50;;;;;;;21.59;nan;101890.25;5061234;28;20178;-69
2022/07/06 10:16:37;;;;;;;4.33;3.00;;;;;;;21.42;nan;101895.84;5059848;28;20463;-71
2022/07/06 10:19:07;;;;;;;4.57;2.60;;;;;;;21.56;nan;101884.16;5060372;28;20482;-69
2022/07/06 10:21:38;;;;;;;3.07;2.40;;;;;;;20.38;nan;101893.84;5061024;28;20406;-68
2022/07/06 10:24:05;;;;;;;2.47;1.90;;;;;;;19.99;nan;101893.41;5060063;28;20825;-68
2022/07/06 10:26:32;;;;;;;2.90;2.33;;;;;;;19.82;nan;101896.22;5060519;28;20395;-68
2022/07/06 10:29:02;;;;;;;3.77;2.83;;;;;;;19.69;nan;101904.25;5060279;28;20839;-69
2022/07/06 10:31:30;;;;;;;4.40;2.83;;;;;;;19.24;nan;101909.09;5060645;28;20814;-68
2022/07/06 10:33:58;;;;;;;3.73;2.73;;;;;;;18.55;nan;101910.38;5060347;28;20416;-69
2022/07/06 10:36:24;;;;;;;3.10;2.60;;;;;;;18.64;nan;101917.34;5059890;28;20394;-68
2022/07/06 10:38:50;;;;;;;2.90;2.60;;;;;;;18.47;nan;101915.66;5060207;28;20449;-67
2022/07/06 10:41:17;;;;;;;4.00;2.40;;;;;;;18.43;nan;101913.94;5060573;28;20465;-67
2022/07/06 10:43:44;;;;;;;6.77;2.40;;;;;;;18.46;nan;101918.31;5059659;28;20474;-68
2022/07/06 10:46:15;;;;;;;5.30;2.67;;;;;;;18.37;nan;101918.34;5059569;28;20405;-67
2022/07/06 10:48:42;;;;;;;5.53;2.50;;;;;;;18.66;nan;101907.66;5060622;28;20439;-69
2022/07/06 10:51:08;;;;;;;3.07;2.40;;;;;;;18.38;nan;101907.78;5060232;28;20473;-68
2022/07/06 10:53:35;;;;;;;6.67;2.63;;;;;;;18.10;nan;101912.28;5059904;28;20408;-70
2022/07/06 10:56:06;;;;;;;5.73;2.73;;;;;;;18.47;nan;101905.09;5059227;28;20404;-71
2022/07/06 10:58:39;;;;;;;3.33;3.03;;;;;;;18.27;nan;101906.97;5059733;28;20431;-70
2022/07/06 11:01:06;;;;;;;3.00;2.67;;;;;;;18.38;nan;101913.06;5059697;28;20455;-69
2022/07/06 11:03:41;;;;;;;7.50;4.97;;;;;;;18.61;nan;101906.81;5059665;28;20864;-70
2022/07/06 11:06:08;;;;;;;3.67;2.50;;;;;;;18.82;nan;101901.41;5059715;28;20533;-69
2022/07/06 11:08:43;;;;;;;4.70;2.93;;;;;;;18.75;nan;101896.16;5059962;28;20678;-71
2022/07/06 11:11:14;;;;;;;6.67;3.80;;;;;;;20.68;nan;101887.25;5059898;28;20786;-69
2022/07/06 11:13:52;;;;;;;3.43;2.20;;;;;;;19.96;nan;101883.72;5059914;28;20422;-69
2022/07/06 11:16:19;;;;;;;5.33;3.23;;;;;;;20.83;nan;101880.84;5060143;28;20420;-69
2022/07/06 11:18:49;;;;;;;4.33;2.37;;;;;;;20.63;nan;101888.19;5059578;28;20470;-69
2022/07/06 11:21:33;;;;;;;4.77;2.20;;;;;;;20.59;nan;101895.31;5059890;28;20428;-69
2022/07/06 11:23:58;;;;;;;5.07;3.00;;;;;;;21.46;nan;101886.03;5060057;28;20412;-70
2022/07/06 11:26:24;;;;;;;3.57;2.30;;;;;;;21.96;nan;101886.94;5059826;28;20835;-69
2022/07/06 11:28:51;;;;;;;3.13;2.20;;;;;;;21.96;nan;101886.03;5059071;28;20424;-70
2022/07/06 11:31:16;;;;;;;5.50;2.87;;;;;;;22.13;nan;101883.03;5059913;28;20543;-70
2022/07/06 11:33:45;;;;;;;3.80;2.50;;;;;;;21.48;nan;101878.94;5060016;28;20500;-69
2022/07/06 11:36:13;;;;;;;3.00;2.47;;;;;;;20.62;nan;101892.63;5059419;28;20172;-69
2022/07/06 11:38:38;;;;;;;3.13;2.10;;;;;;;20.29;nan;101886.00;5059264;28;20404;-69
2022/07/06 11:41:03;;;;;;;3.20;2.03;;;;;;;20.52;nan;101886.56;5059896;28;20448;-69
2022/07/06 11:43:29;;;;;;;3.83;3.10;;;;;;;20.35;nan;101878.00;5059215;28;20201;-69